createdAt,value
2018-05-15T00:01:07.992Z,13.97
2018-05-15T00:03:50.047Z,13.98
2018-05-15T00:12:25.837Z,14.06
2018-05-15T00:14:59.264Z,14.04
2018-05-15T00:17:28.775Z,14.09
2018-05-15T00:19:56.287Z,14.06
2018-05-15T00:25:26.416Z,14.08
2018-05-15T00:27:53.992Z,14.10
2018-05-15T00:30:21.526Z,14.05
2018-05-15T00:32:49.032Z,13.99
2018-05-15T00:35:16.585Z,14.02
2018-05-15T00:37:44.160Z,13.94
2018-05-15T00:40:11.640Z,13.93
2018-05-15T00:42:39.183Z,13.86
2018-05-15T00:45:06.733Z,13.85
2018-05-15T00:47:34.212Z,13.89
2018-05-15T00:50:01.794Z,13.83
2018-05-15T00:52:29.366Z,13.89
2018-05-15T00:55:08.734Z,13.86
2018-05-15T00:57:36.343Z,13.87
2018-05-15T01:00:08.639Z,13.78
2018-05-15T01:02:36.112Z,13.82
2018-05-15T01:05:03.648Z,13.80
2018-05-15T01:07:31.158Z,13.84
2018-05-15T01:09:58.669Z,13.82
2018-05-15T01:12:26.249Z,13.84
2018-05-15T01:14:53.763Z,13.86
2018-05-15T01:17:21.413Z,13.84
2018-05-15T01:19:48.921Z,13.71
2018-05-15T01:22:17.408Z,13.78
2018-05-15T01:24:44.908Z,13.82
2018-05-15T01:27:12.502Z,13.80
2018-05-15T01:29:40.121Z,13.77
2018-05-15T01:32:07.634Z,13.83
2018-05-15T01:34:35.233Z,13.78
2018-05-15T01:37:02.754Z,13.78
2018-05-15T01:39:30.265Z,13.72
2018-05-15T01:41:57.806Z,13.71
2018-05-15T01:44:25.284Z,13.74
2018-05-15T01:46:52.824Z,13.73
2018-05-15T01:49:20.349Z,13.69
2018-05-15T01:51:48.208Z,13.64
2018-05-15T01:54:15.735Z,13.60
2018-05-15T01:56:43.359Z,13.58
2018-05-15T01:59:10.843Z,13.59
2018-05-15T02:01:38.315Z,13.52
2018-05-15T02:04:05.933Z,13.53
2018-05-15T02:06:33.441Z,13.57
2018-05-15T02:09:00.961Z,13.56
2018-05-15T02:11:28.516Z,13.57
2018-05-15T02:13:55.993Z,13.53
2018-05-15T02:16:23.520Z,13.60
2018-05-15T02:18:51.034Z,13.60
2018-05-15T02:21:18.569Z,13.62
2018-05-15T02:23:46.156Z,13.66
2018-05-15T02:26:13.670Z,13.63
2018-05-15T02:28:41.148Z,13.65
2018-05-15T02:31:08.632Z,13.70
2018-05-15T02:33:36.190Z,13.64
2018-05-15T02:36:03.664Z,13.71
2018-05-15T02:38:31.127Z,13.79
2018-05-15T02:40:58.646Z,13.79
2018-05-15T02:43:26.123Z,13.66
2018-05-15T02:45:53.607Z,13.77
2018-05-15T02:48:21.104Z,13.85
2018-05-15T02:50:48.592Z,13.82
2018-05-15T02:53:16.085Z,13.78
2018-05-15T02:55:43.682Z,13.76
2018-05-15T02:58:11.202Z,13.78
2018-05-15T03:00:38.724Z,13.75
2018-05-15T03:03:06.226Z,13.72
2018-05-15T03:05:33.759Z,13.74
2018-05-15T03:08:01.282Z,13.74
2018-05-15T03:10:28.842Z,13.80
2018-05-15T03:12:56.371Z,13.80
2018-05-15T03:15:23.852Z,13.87
2018-05-15T03:17:51.326Z,13.91
2018-05-15T03:20:18.834Z,13.92
2018-05-15T03:22:46.321Z,13.87
2018-05-15T03:25:13.795Z,13.93
2018-05-15T03:27:41.264Z,13.93
2018-05-15T03:30:08.732Z,13.89
2018-05-15T03:32:36.290Z,13.95
2018-05-15T03:35:03.781Z,13.97
2018-05-15T03:37:31.258Z,13.85
2018-05-15T03:39:58.739Z,13.92
2018-05-15T03:42:26.259Z,13.94
2018-05-15T03:44:53.750Z,13.88
2018-05-15T03:47:21.225Z,13.88
2018-05-15T03:49:48.705Z,13.84
2018-05-15T03:52:16.197Z,13.81
2018-05-15T03:55:01.990Z,13.85
2018-05-15T03:57:29.505Z,13.84
2018-05-15T03:59:57.018Z,13.86
2018-05-15T04:02:36.293Z,13.80
2018-05-15T04:05:15.707Z,13.76
2018-05-15T04:07:49.150Z,13.69
2018-05-15T04:10:16.698Z,13.73
2018-05-15T04:12:44.196Z,13.71
2018-05-15T04:15:11.708Z,13.69
2018-05-15T04:17:39.352Z,13.68
2018-05-15T04:20:06.829Z,13.69
2018-05-15T04:22:34.306Z,13.75
2018-05-15T04:25:01.791Z,13.74
2018-05-15T04:27:29.268Z,13.70
2018-05-15T04:29:56.773Z,13.70
2018-05-15T04:32:24.495Z,13.59
2018-05-15T04:34:52.274Z,13.56
2018-05-15T04:37:19.764Z,13.55
2018-05-15T04:39:47.238Z,13.54
2018-05-15T04:42:14.697Z,13.40
2018-05-15T04:44:42.168Z,13.53
2018-05-15T04:47:09.715Z,13.50
2018-05-15T04:49:37.190Z,13.52
2018-05-15T04:52:04.716Z,13.67
2018-05-15T04:54:32.201Z,13.63
2018-05-15T04:56:59.686Z,13.56
2018-05-15T04:59:27.179Z,13.60
2018-05-15T05:01:54.700Z,13.61
2018-05-15T05:04:22.227Z,13.62
2018-05-15T05:06:49.695Z,13.61
2018-05-15T05:09:17.164Z,13.54
2018-05-15T05:11:44.673Z,13.58
2018-05-15T05:14:12.153Z,13.59
2018-05-15T05:16:39.658Z,13.64
2018-05-15T05:19:07.136Z,13.75
2018-05-15T05:21:34.630Z,13.81
2018-05-15T05:24:02.107Z,13.99
2018-05-15T05:26:29.598Z,14.21
2018-05-15T05:28:57.119Z,14.45
2018-05-15T05:31:24.630Z,14.31
2018-05-15T05:33:52.130Z,14.19
2018-05-15T05:36:19.621Z,14.41
2018-05-15T05:38:47.085Z,14.48
2018-05-15T05:41:14.541Z,14.58
2018-05-15T05:43:42.006Z,14.66
2018-05-15T05:46:09.543Z,14.53
2018-05-15T05:48:37.009Z,14.49
2018-05-15T05:51:04.468Z,14.63
2018-05-15T05:53:31.930Z,14.94
2018-05-15T05:56:00.398Z,15.04
2018-05-15T05:58:27.860Z,15.38
2018-05-15T06:00:55.339Z,15.32
2018-05-15T06:03:22.873Z,15.28
2018-05-15T06:05:50.333Z,15.16
2018-05-15T06:08:17.801Z,14.82
2018-05-15T06:10:45.265Z,14.68
2018-05-15T06:13:12.780Z,14.49
2018-05-15T06:15:40.270Z,14.40
2018-05-15T06:18:07.716Z,14.40
2018-05-15T06:20:35.305Z,14.32
2018-05-15T06:23:02.770Z,14.33
2018-05-15T06:25:30.268Z,14.39
2018-05-15T06:27:57.741Z,14.37
2018-05-15T06:30:25.267Z,14.26
2018-05-15T06:32:52.743Z,14.36
2018-05-15T06:35:20.211Z,14.51
2018-05-15T06:37:47.738Z,14.57
2018-05-15T06:40:15.242Z,14.62
2018-05-15T06:42:42.737Z,14.77
2018-05-15T06:45:10.247Z,14.80
2018-05-15T06:47:37.825Z,14.37
2018-05-15T06:50:05.613Z,14.39
2018-05-15T06:52:33.123Z,14.54
2018-05-15T06:55:00.730Z,14.67
2018-05-15T06:57:28.276Z,14.65
2018-05-15T06:59:55.856Z,14.74
2018-05-15T07:02:23.370Z,14.71
2018-05-15T07:04:50.923Z,14.55
2018-05-15T07:07:18.445Z,14.55
2018-05-15T07:09:46.110Z,14.68
2018-05-15T07:12:13.689Z,14.94
2018-05-15T07:14:41.288Z,14.99
2018-05-15T07:17:08.854Z,15.05
2018-05-15T07:19:36.424Z,15.07
2018-05-15T07:22:03.871Z,15.14
2018-05-15T07:24:31.385Z,15.35
2018-05-15T07:26:59.117Z,15.44
2018-05-15T07:29:26.597Z,15.51
2018-05-15T07:31:54.056Z,15.87
2018-05-15T07:34:21.538Z,16.26
2018-05-15T07:36:49.081Z,16.53
2018-05-15T07:39:16.529Z,17.06
2018-05-15T07:41:44.303Z,17.91
2018-05-15T07:44:11.784Z,18.22
2018-05-15T07:46:39.303Z,18.33
2018-05-15T07:49:06.794Z,18.57
2018-05-15T07:51:34.279Z,18.67
2018-05-15T07:54:01.762Z,18.98
2018-05-15T07:56:29.230Z,19.00
2018-05-15T07:58:56.799Z,18.97
2018-05-15T08:01:24.277Z,18.52
2018-05-15T08:03:51.794Z,18.75
2018-05-15T08:06:19.325Z,18.71
2018-05-15T08:08:46.811Z,18.38
2018-05-15T08:11:14.271Z,18.36
2018-05-15T08:13:41.742Z,18.52
2018-05-15T08:16:09.241Z,18.67
2018-05-15T08:18:36.709Z,18.55
2018-05-15T08:21:04.200Z,18.53
2018-05-15T08:23:31.674Z,18.72
2018-05-15T08:25:59.176Z,18.34
2018-05-15T08:28:39.304Z,18.36
2018-05-15T08:31:06.812Z,18.78
2018-05-15T08:33:35.330Z,19.29
2018-05-15T08:36:15.109Z,19.68
2018-05-15T08:38:42.661Z,19.60
2018-05-15T08:41:10.124Z,19.71
2018-05-15T08:43:37.629Z,19.63
2018-05-15T08:46:05.152Z,19.94
2018-05-15T08:48:32.737Z,20.06
2018-05-15T08:51:00.196Z,20.29
2018-05-15T08:53:29.643Z,20.41
2018-05-15T08:55:57.283Z,20.28
2018-05-15T08:58:24.901Z,20.12
2018-05-15T09:00:53.490Z,20.32
2018-05-15T09:06:26.541Z,20.19
2018-05-15T09:08:54.056Z,19.79
2018-05-15T09:11:26.461Z,19.84
2018-05-15T09:13:56.042Z,19.99
2018-05-15T09:16:23.664Z,20.08
2018-05-15T09:19:08.882Z,20.10
2018-05-15T09:21:38.482Z,20.31
2018-05-15T09:24:15.779Z,20.55
2018-05-15T09:26:43.384Z,21.01
2018-05-15T09:29:14.289Z,21.26
2018-05-15T09:31:41.793Z,21.20
2018-05-15T09:34:09.325Z,21.44
2018-05-15T09:36:36.926Z,21.67
2018-05-15T09:39:05.337Z,21.73
2018-05-15T09:41:32.842Z,21.91
2018-05-15T09:44:00.526Z,21.80
2018-05-15T09:46:28.091Z,21.62
2018-05-15T09:48:55.850Z,21.53
2018-05-15T09:51:23.607Z,21.58
2018-05-15T09:53:51.106Z,21.60
2018-05-15T09:56:18.598Z,21.43
2018-05-15T09:58:46.098Z,21.35
2018-05-15T10:01:13.577Z,21.44
2018-05-15T10:03:41.149Z,21.69
2018-05-15T10:06:10.665Z,21.74
2018-05-15T10:08:38.120Z,21.80
2018-05-15T10:11:05.594Z,21.96
2018-05-15T10:13:33.065Z,22.11
2018-05-15T10:16:00.641Z,22.42
2018-05-15T10:18:31.822Z,22.42
2018-05-15T10:20:59.307Z,22.44
2018-05-15T10:23:27.344Z,22.63
2018-05-15T10:25:54.794Z,22.61
2018-05-15T10:28:22.250Z,22.49
2018-05-15T10:30:49.708Z,22.42
2018-05-15T10:33:17.178Z,22.44
2018-05-15T10:35:44.627Z,22.55
2018-05-15T10:38:12.125Z,22.48
2018-05-15T10:40:39.617Z,22.72
2018-05-15T10:43:07.075Z,23.01
2018-05-15T10:45:34.527Z,23.34
2018-05-15T10:50:58.707Z,23.63
2018-05-15T10:53:27.032Z,24.26
2018-05-15T10:55:54.543Z,23.79
2018-05-15T10:58:22.070Z,23.70
2018-05-15T11:00:49.585Z,23.45
2018-05-15T11:03:17.240Z,23.33
2018-05-15T11:05:44.707Z,23.38
2018-05-15T11:08:15.631Z,24.01
2018-05-15T11:10:43.121Z,24.44
2018-05-15T11:13:10.635Z,24.85
2018-05-15T11:15:38.192Z,25.16
2018-05-15T11:18:17.408Z,25.50
2018-05-15T11:20:56.716Z,24.94
2018-05-15T11:23:36.082Z,24.99
2018-05-15T11:26:04.581Z,24.99
2018-05-15T11:28:32.039Z,25.03
2018-05-15T11:31:01.656Z,25.26
2018-05-15T11:33:29.155Z,25.09
2018-05-15T11:35:56.712Z,25.02
2018-05-15T11:38:24.085Z,24.44
2018-05-15T11:40:51.565Z,24.16
2018-05-15T11:43:19.020Z,24.23
2018-05-15T11:45:46.489Z,24.59
2018-05-15T11:48:14.505Z,25.01
2018-05-15T11:50:42.285Z,25.41
2018-05-15T11:53:09.808Z,25.76
2018-05-15T11:55:42.710Z,25.93
2018-05-15T11:58:03.918Z,26.57
2018-05-15T12:00:31.317Z,26.98
2018-05-15T12:03:05.539Z,28.35
2018-05-15T12:05:33.020Z,29.80
2018-05-15T12:08:04.208Z,30.50
2018-05-15T12:10:34.748Z,30.87
2018-05-15T12:13:03.020Z,31.68
2018-05-15T12:15:30.444Z,32.37
2018-05-15T12:17:57.923Z,32.02
2018-05-15T12:20:25.379Z,31.65
2018-05-15T12:22:53.954Z,30.29
2018-05-15T12:25:21.835Z,28.58
2018-05-15T12:27:49.286Z,27.50
2018-05-15T12:30:18.375Z,26.57
2018-05-15T12:32:45.820Z,25.72
2018-05-15T12:35:14.829Z,25.36
2018-05-15T12:37:42.261Z,27.97
2018-05-15T12:40:09.710Z,30.83
2018-05-15T12:42:37.140Z,33.25
2018-05-15T12:45:05.574Z,35.39
2018-05-15T12:47:33.029Z,36.98
2018-05-15T12:50:00.453Z,38.34
2018-05-15T12:52:27.893Z,39.08
2018-05-15T12:54:55.341Z,38.27
2018-05-15T12:57:22.769Z,37.70
2018-05-15T12:59:52.196Z,36.44
2018-05-15T13:02:19.662Z,37.31
2018-05-15T13:04:48.497Z,37.06
2018-05-15T13:07:16.929Z,36.95
2018-05-15T13:09:44.405Z,37.40
2018-05-15T13:12:12.045Z,37.96
2018-05-15T13:14:39.561Z,38.48
2018-05-15T13:17:07.022Z,39.19
2018-05-15T13:19:34.489Z,38.70
2018-05-15T13:22:01.942Z,36.76
2018-05-15T13:24:29.487Z,34.72
2018-05-15T13:26:56.962Z,34.37
2018-05-15T13:29:25.341Z,35.36
2018-05-15T13:31:52.794Z,33.77
2018-05-15T13:34:20.979Z,33.44
2018-05-15T13:36:48.436Z,33.73
2018-05-15T13:39:15.889Z,34.45
2018-05-15T13:41:43.337Z,33.74
2018-05-15T13:44:10.788Z,33.45
2018-05-15T13:46:39.631Z,32.28
2018-05-15T13:49:07.449Z,31.45
2018-05-15T13:51:35.808Z,32.73
2018-05-15T13:54:03.248Z,34.53
2018-05-15T13:56:30.703Z,35.22
2018-05-15T13:58:58.170Z,36.49
2018-05-15T14:01:26.578Z,37.18
2018-05-15T14:03:55.750Z,35.55
2018-05-15T14:06:23.751Z,35.91
2018-05-15T14:08:51.273Z,35.45
2018-05-15T14:11:18.717Z,37.51
2018-05-15T14:13:46.175Z,38.92
2018-05-15T14:16:13.624Z,37.91
2018-05-15T14:18:41.060Z,35.66
2018-05-15T14:21:08.511Z,34.03
2018-05-15T14:23:37.065Z,32.94
2018-05-15T14:26:04.511Z,34.32
2018-05-15T14:28:31.975Z,35.04
2018-05-15T14:30:59.449Z,36.21
2018-05-15T14:33:26.922Z,36.77
2018-05-15T14:35:54.386Z,37.25
2018-05-15T14:38:21.819Z,36.19
2018-05-15T14:40:49.259Z,38.49
2018-05-15T14:43:23.529Z,38.51
2018-05-15T14:45:51.502Z,35.99
2018-05-15T14:48:19.059Z,35.22
2018-05-15T14:53:45.205Z,35.98
2018-05-15T14:56:13.003Z,35.65
2018-05-15T14:58:40.636Z,33.95
2018-05-15T15:01:09.171Z,34.34
2018-05-15T15:03:36.710Z,36.19
2018-05-15T15:06:04.343Z,36.07
2018-05-15T15:08:31.958Z,35.00
2018-05-15T15:10:59.453Z,33.09
2018-05-15T15:13:26.982Z,31.85
2018-05-15T15:15:54.515Z,32.57
2018-05-15T15:18:22.064Z,34.03
2018-05-15T15:20:49.573Z,36.28
2018-05-15T15:23:17.121Z,37.88
2018-05-15T15:25:44.634Z,36.90
2018-05-15T15:28:12.220Z,35.76
2018-05-15T15:30:39.776Z,35.87
2018-05-15T15:33:07.584Z,35.94
2018-05-15T15:35:34.938Z,35.32
2018-05-15T15:38:02.459Z,34.92
2018-05-15T15:40:30.064Z,33.97
2018-05-15T15:42:57.797Z,32.99
2018-05-15T15:45:25.314Z,32.02
2018-05-15T15:47:52.903Z,30.67
2018-05-15T15:50:20.469Z,29.58
2018-05-15T15:52:48.009Z,28.91
2018-05-15T15:55:15.540Z,28.68
2018-05-15T15:57:43.082Z,29.24
2018-05-15T16:00:10.596Z,30.02
2018-05-15T16:02:38.085Z,30.58
2018-05-15T16:05:05.813Z,30.74
2018-05-15T16:07:33.863Z,30.01
2018-05-15T16:10:01.650Z,29.10
2018-05-15T16:12:29.002Z,27.90
2018-05-15T16:14:56.539Z,27.29
2018-05-15T16:17:24.126Z,26.00
2018-05-15T16:19:51.696Z,25.17
2018-05-15T16:22:19.227Z,24.40
2018-05-15T16:24:46.746Z,24.12
2018-05-15T16:30:06.447Z,23.38
2018-05-15T16:35:24.975Z,23.00
2018-05-15T16:40:52.089Z,22.89
2018-05-15T16:43:19.733Z,22.79
2018-05-15T16:45:47.276Z,22.92
2018-05-15T16:48:14.799Z,22.96
2018-05-15T16:50:42.345Z,22.90
2018-05-15T16:53:12.137Z,22.70
2018-05-15T16:55:49.584Z,22.61
2018-05-15T16:58:17.141Z,22.45
2018-05-15T17:00:44.754Z,22.28
2018-05-15T17:03:12.449Z,22.08
2018-05-15T17:08:30.338Z,21.91
2018-05-15T17:10:57.864Z,21.87
2018-05-15T17:13:25.583Z,21.73
2018-05-15T17:15:53.081Z,21.59
2018-05-15T17:18:20.618Z,21.36
2018-05-15T17:26:29.452Z,20.59
2018-05-15T17:28:57.014Z,20.17
2018-05-15T17:31:24.636Z,19.80
2018-05-15T17:33:52.139Z,19.63
2018-05-15T17:36:20.009Z,19.55
2018-05-15T17:38:48.580Z,19.43
2018-05-15T17:41:16.233Z,19.19
2018-05-15T17:43:43.801Z,19.21
2018-05-15T17:46:11.852Z,19.17
2018-05-15T17:48:39.399Z,19.15
2018-05-15T17:51:06.906Z,19.09
2018-05-15T17:53:34.468Z,18.96
2018-05-15T17:56:02.056Z,18.82
2018-05-15T17:58:29.762Z,18.65
2018-05-15T18:00:57.334Z,18.40
2018-05-15T18:03:25.034Z,18.24
2018-05-15T18:05:52.757Z,18.08
2018-05-15T18:08:20.301Z,18.00
2018-05-15T18:10:47.846Z,17.96
2018-05-15T18:13:15.432Z,17.90
2018-05-15T18:29:58.060Z,17.77
2018-05-15T18:32:25.601Z,17.67
2018-05-15T18:34:53.168Z,17.52
2018-05-15T18:37:21.310Z,17.34
2018-05-15T18:39:48.906Z,17.21
2018-05-15T18:42:16.464Z,17.11
2018-05-15T18:44:44.125Z,16.99
2018-05-15T18:47:11.754Z,16.91
2018-05-15T18:49:39.425Z,16.80
2018-05-15T18:52:06.986Z,16.74
2018-05-15T18:54:35.083Z,16.70
2018-05-15T18:57:02.759Z,16.64
2018-05-15T18:59:30.294Z,16.59
2018-05-15T19:01:57.822Z,16.57
2018-05-15T19:04:32.118Z,16.53
2018-05-15T19:09:50.755Z,16.38
2018-05-15T19:12:18.622Z,16.32
2018-05-15T19:14:46.264Z,16.30
2018-05-15T19:17:13.798Z,16.27
2018-05-15T19:22:32.044Z,16.18
2018-05-15T19:27:50.545Z,16.10
2018-05-15T19:30:18.236Z,16.11
2018-05-15T19:32:45.820Z,16.07
2018-05-15T19:35:18.938Z,16.04
2018-05-15T19:37:46.464Z,16.06
2018-05-15T19:40:14.375Z,16.10
2018-05-15T19:42:41.903Z,16.08
2018-05-15T19:45:09.450Z,16.06
2018-05-15T19:47:36.985Z,16.06
2018-05-15T19:50:05.643Z,16.07
2018-05-15T19:52:33.204Z,16.10
2018-05-15T19:55:00.716Z,16.12
2018-05-15T20:03:09.170Z,16.10
2018-05-15T20:05:36.750Z,16.14
2018-05-15T20:08:04.283Z,16.15
2018-05-15T20:10:31.846Z,16.16
2018-05-15T20:12:59.399Z,16.17
2018-05-15T20:15:27.011Z,16.14
2018-05-15T20:17:54.546Z,16.11
2018-05-15T20:20:22.166Z,16.08
2018-05-15T20:25:40.514Z,16.05
2018-05-15T20:28:08.053Z,16.04
2018-05-15T20:30:36.253Z,16.07
2018-05-15T20:33:03.814Z,16.02
2018-05-15T20:35:31.357Z,15.79
2018-05-15T20:37:58.939Z,15.60
2018-05-15T20:40:26.475Z,15.49
2018-05-15T20:42:54.031Z,15.43
2018-05-15T20:51:03.077Z,15.42
2018-05-15T20:53:30.615Z,15.35
2018-05-15T20:55:58.313Z,15.37
2018-05-15T20:58:25.947Z,15.31
2018-05-15T21:00:53.484Z,15.33
2018-05-15T21:03:21.105Z,15.36
2018-05-15T21:05:48.646Z,15.30
2018-05-15T21:08:16.308Z,15.26
2018-05-15T21:10:43.947Z,15.22
2018-05-15T21:13:11.511Z,15.22
2018-05-15T21:15:40.013Z,15.23
2018-05-15T21:18:07.563Z,15.17
2018-05-15T21:20:35.233Z,15.10
2018-05-15T21:23:02.868Z,15.03
2018-05-15T21:25:30.685Z,15.02
2018-05-15T21:27:58.296Z,15.01
2018-05-15T21:30:25.845Z,15.01
2018-05-15T21:32:53.385Z,15.04
2018-05-15T21:35:21.604Z,15.08
2018-05-15T21:37:49.188Z,15.13
2018-05-15T21:40:16.756Z,15.08
2018-05-15T21:42:44.301Z,15.00
2018-05-15T21:45:11.895Z,14.80
2018-05-15T21:47:39.448Z,14.79
2018-05-15T21:50:06.975Z,14.84
2018-05-15T21:52:34.500Z,14.89
2018-05-15T21:55:02.028Z,14.88
2018-05-15T21:57:29.537Z,14.79
2018-05-15T21:59:58.040Z,14.74
2018-05-15T22:02:25.677Z,14.73
2018-05-15T22:04:53.399Z,14.71
2018-05-15T22:07:21.030Z,14.72
2018-05-15T22:09:48.631Z,14.63
2018-05-15T22:12:27.987Z,14.67
2018-05-15T22:15:07.438Z,14.75
2018-05-15T22:17:47.036Z,14.71
2018-05-15T22:20:26.588Z,14.80
2018-05-15T22:22:53.571Z,14.80
2018-05-15T22:25:21.349Z,14.82
2018-05-15T22:27:48.915Z,14.81
2018-05-15T22:30:16.509Z,14.78
2018-05-15T22:32:44.062Z,14.81
2018-05-15T22:35:11.605Z,14.63
2018-05-15T22:37:39.121Z,14.60
2018-05-15T22:40:06.725Z,14.63
2018-05-15T22:42:34.276Z,14.68
2018-05-15T22:45:01.873Z,14.69
2018-05-15T22:47:29.411Z,14.67
2018-05-15T22:49:57.147Z,14.73
2018-05-15T22:52:24.680Z,14.64
2018-05-15T22:54:52.410Z,14.59
2018-05-15T22:57:19.945Z,14.36
2018-05-15T22:59:47.453Z,14.39
2018-05-15T23:02:15.079Z,14.39
2018-05-15T23:04:42.626Z,14.43
2018-05-15T23:07:10.170Z,14.51
2018-05-15T23:09:37.777Z,14.53
2018-05-15T23:12:05.411Z,14.60
2018-05-15T23:14:33.026Z,14.72
2018-05-15T23:17:00.592Z,14.71
2018-05-15T23:19:28.145Z,14.73
2018-05-15T23:21:55.711Z,14.59
2018-05-15T23:24:23.246Z,14.62
2018-05-15T23:26:50.816Z,14.63
2018-05-15T23:29:18.367Z,14.56
2018-05-15T23:31:45.925Z,14.57
2018-05-15T23:34:13.461Z,14.58
2018-05-15T23:36:40.998Z,14.57
2018-05-15T23:39:09.615Z,14.57
2018-05-15T23:41:37.166Z,14.54
2018-05-15T23:44:04.704Z,14.37
2018-05-15T23:46:32.266Z,14.42
2018-05-15T23:48:59.849Z,14.34
2018-05-15T23:51:27.383Z,14.22
2018-05-15T23:53:54.920Z,14.25
2018-05-15T23:56:22.466Z,14.17
2018-05-15T23:58:50.008Z,14.18
